Hauptseite
METAR-TAF:

METAR-TAF

Flughäfen :

Shimoji-shima, Japan

Breite: 24-50N, Länge: 125-09E, Höhe: 16 m

Beobachtung

Neuester Wetterbericht von vor 47 Minuten, um 06:00 UTC
Wind 15 kt aus Nord/Nordost
Temperatur 25°C
Luftfeuchtigkeit 74%
Luftdruck 1009 hPa
Sichtweite 10 km oder mehr
Aufgelockert bewölkt in der Höhe von 2100 ft

METAR: RORS 180600Z 03015KT 9999 SCT021 25/20 Q1009

Zeit: 15:47 (06:47 UTC)


TAF: fehlend

Wetterbeobachtungen und Prognosen von mehr als 4000 Flughäfen (METAR und TAF Bericht).

Die verfügbaren Stationen werden durch gelbe und rote Markierungen auf der Karte dargestellt.

Führen Sie die Maus auf sie, um den Namen der Station zu sehen.

Darauf klicken, um die Beobachtung von Wetterbeobachtungen und Prognosen zu sehen.

Um die Karte zu ändern : klicken Sie auf den grünen Tasten mit einem schwarzen Kreuz Zum Vergrößern, auf den grünen Button mit einem Gedankenstrich zu verkleinern, oder auf die grünen Pfeile für benachbarte Karten.


METAR-TAF: